Masaryktown, Florida
Current Conditions -  °F | °C
As of 11:53 AM on Saturday 25 Oct 2014 (Local Time) from KBKV Reporting Station
Clear Clear  
Wind Chill: 75°   Ceiling: Unl
Heat Index: 75°   Visibility: 10mi
Dew Point: 52°   Wind: 10mph
Humidity: 44%   Direction: 20°NNE
Pressure: 30.04"   Gusts: NA
Location:  28.4822°N, 82.4333°W
Report Text: KBKV 251553Z AUTO 02009KT 10SM CLR 24/11 A3004 RMK AO2 SLP169 T02390111
Loading
Personal Weather Stations






























Interactive Weather Map
Tropical Storm Tracking
New forecast layout! Learn more

10-Day Weather Forecast

Advertisements
Track Severe Weather on mobile